createdAt,value
2023-11-23T00:00:17.524Z,26.98
2023-11-23T00:02:44.597Z,23.98
2023-11-23T00:05:12.229Z,26.73
2023-11-23T00:07:39.860Z,26.65
2023-11-23T00:10:07.760Z,25.60
2023-11-23T00:12:34.880Z,27.38
2023-11-23T00:15:02.350Z,28.55
2023-11-23T00:17:31.663Z,27.17
2023-11-23T00:19:59.395Z,25.73
2023-11-23T00:22:28.148Z,24.63
2023-11-23T00:24:58.128Z,28.45
2023-11-23T00:27:25.168Z,26.95
2023-11-23T00:29:52.631Z,26.88
2023-11-23T00:32:20.533Z,26.77
2023-11-23T00:34:47.809Z,26.67
2023-11-23T00:37:15.880Z,24.23
2023-11-23T00:39:43.628Z,27.02
2023-11-23T00:42:10.882Z,27.40
2023-11-23T00:44:38.621Z,27.52
2023-11-23T00:47:06.172Z,29.58
2023-11-23T00:49:34.978Z,25.88
2023-11-23T00:52:02.426Z,28.58
2023-11-23T00:54:29.437Z,26.92
2023-11-23T00:56:56.391Z,27.33
2023-11-23T00:59:23.513Z,26.92
2023-11-23T01:01:50.837Z,28.40
2023-11-23T01:04:18.236Z,28.17
2023-11-23T01:06:45.157Z,26.33
2023-11-23T01:09:12.812Z,25.70
2023-11-23T01:11:40.841Z,26.27
2023-11-23T01:14:09.362Z,26.67
2023-11-23T01:16:36.599Z,25.30
2023-11-23T01:19:03.562Z,24.30
2023-11-23T01:21:30.497Z,24.35
2023-11-23T01:23:57.727Z,22.15
2023-11-23T01:26:24.703Z,24.05
2023-11-23T01:28:52.204Z,22.77
2023-11-23T01:31:19.183Z,23.58
2023-11-23T01:33:46.274Z,22.95
2023-11-23T01:36:13.475Z,22.95
2023-11-23T01:38:40.503Z,21.50
2023-11-23T01:41:07.557Z,23.55
2023-11-23T01:43:34.533Z,23.02
2023-11-23T01:46:02.302Z,26.60
2023-11-23T01:48:32.244Z,21.52
2023-11-23T01:51:00.786Z,23.35
2023-11-23T01:53:27.856Z,22.58
2023-11-23T01:55:54.858Z,24.25
2023-11-23T01:58:22.919Z,20.17
2023-11-23T02:00:51.614Z,24.13
2023-11-23T02:03:23.248Z,19.67
2023-11-23T02:05:50.270Z,23.60
2023-11-23T02:08:17.367Z,23.08
2023-11-23T02:10:44.386Z,24.77
2023-11-23T02:13:11.529Z,22.58
2023-11-23T02:15:39.282Z,20.80
2023-11-23T02:18:11.732Z,24.42
2023-11-23T02:20:40.280Z,23.90
2023-11-23T02:23:07.196Z,21.25
2023-11-23T02:25:34.694Z,22.42
2023-11-23T02:28:02.095Z,21.88
2023-11-23T02:30:29.340Z,22.40
2023-11-23T02:32:57.564Z,22.58
2023-11-23T02:35:24.628Z,24.45
2023-11-23T02:37:51.545Z,22.90
2023-11-23T02:40:18.609Z,22.60
2023-11-23T02:42:46.834Z,23.50
2023-11-23T02:45:14.396Z,22.77
2023-11-23T02:47:41.784Z,22.00
2023-11-23T02:50:10.363Z,22.23
2023-11-23T02:52:38.171Z,20.27
2023-11-23T02:55:05.461Z,22.00
2023-11-23T02:57:32.703Z,25.88
2023-11-23T02:59:59.681Z,20.67
2023-11-23T03:02:26.707Z,21.80
2023-11-23T03:04:55.218Z,23.23
2023-11-23T03:07:22.289Z,22.65
2023-11-23T03:09:50.102Z,20.17
2023-11-23T03:12:17.616Z,23.52
2023-11-23T03:14:45.115Z,23.70
2023-11-23T03:17:12.152Z,24.20
2023-11-23T03:19:39.385Z,27.45
2023-11-23T03:22:07.948Z,23.77
2023-11-23T03:24:34.933Z,22.27
2023-11-23T03:27:01.940Z,24.58
2023-11-23T03:29:29.560Z,22.88
2023-11-23T03:31:56.505Z,23.45
2023-11-23T03:34:25.138Z,23.90
2023-11-23T03:36:52.090Z,23.70
2023-11-23T03:39:19.818Z,23.25
2023-11-23T03:41:48.448Z,26.08
2023-11-23T03:44:15.923Z,21.65
2023-11-23T03:46:43.106Z,23.05
2023-11-23T03:49:10.308Z,24.73
2023-11-23T03:51:37.766Z,24.50
2023-11-23T03:54:05.171Z,22.80
2023-11-23T03:56:32.217Z,23.17
2023-11-23T03:58:59.367Z,24.08
2023-11-23T04:01:26.351Z,26.20
2023-11-23T04:03:53.387Z,25.23
2023-11-23T04:06:20.450Z,23.73
2023-11-23T04:08:49.023Z,26.63
2023-11-23T04:11:16.283Z,22.77
2023-11-23T04:13:43.306Z,28.75
2023-11-23T04:16:10.347Z,26.38
2023-11-23T04:18:37.364Z,24.83
2023-11-23T04:21:05.150Z,25.35
2023-11-23T04:23:32.190Z,23.33
2023-11-23T04:25:59.142Z,24.23
2023-11-23T04:28:27.130Z,24.75
2023-11-23T04:30:54.766Z,23.95
2023-11-23T04:33:24.052Z,23.55
2023-11-23T04:35:51.345Z,23.27
2023-11-23T04:38:18.278Z,23.25
2023-11-23T04:40:45.460Z,24.75
2023-11-23T04:43:13.460Z,24.17
2023-11-23T04:45:40.824Z,24.02
2023-11-23T04:48:08.236Z,27.70
2023-11-23T04:50:36.223Z,27.35
2023-11-23T04:53:03.716Z,26.23
2023-11-23T04:55:31.164Z,27.85
2023-11-23T04:57:58.236Z,28.80
2023-11-23T05:00:28.158Z,28.70
2023-11-23T05:02:55.883Z,32.30
2023-11-23T05:05:23.004Z,29.42
2023-11-23T05:07:50.305Z,29.40
2023-11-23T05:10:17.630Z,29.50
2023-11-23T05:12:44.822Z,27.90
2023-11-23T05:15:11.988Z,26.88
2023-11-23T05:17:39.107Z,28.98
2023-11-23T05:20:06.774Z,29.00
2023-11-23T05:22:34.199Z,27.83
2023-11-23T05:25:01.341Z,28.15
2023-11-23T05:27:28.350Z,27.55
2023-11-23T05:29:55.298Z,27.10
2023-11-23T05:32:22.315Z,28.85
2023-11-23T05:34:49.218Z,27.08
2023-11-23T05:37:16.117Z,27.67
2023-11-23T05:39:44.490Z,28.60
2023-11-23T05:42:12.443Z,28.20
2023-11-23T05:44:40.250Z,28.75
2023-11-23T05:47:07.277Z,29.27
2023-11-23T05:49:34.312Z,29.88
2023-11-23T05:52:01.460Z,27.70
2023-11-23T05:54:29.242Z,28.70
2023-11-23T05:56:56.568Z,28.85
2023-11-23T05:59:23.508Z,26.65
2023-11-23T06:01:50.440Z,28.10
2023-11-23T06:04:18.369Z,27.88
2023-11-23T06:06:45.709Z,28.40
2023-11-23T06:09:12.956Z,28.65
2023-11-23T06:11:40.023Z,29.77
2023-11-23T06:14:06.957Z,30.83
2023-11-23T06:16:34.824Z,28.08
2023-11-23T06:19:04.000Z,29.70
2023-11-23T06:21:31.926Z,30.92
2023-11-23T06:23:59.685Z,30.30
2023-11-23T06:26:26.765Z,31.48
2023-11-23T06:28:53.765Z,30.92
2023-11-23T06:31:20.724Z,30.48
2023-11-23T06:33:47.899Z,31.63
2023-11-23T06:36:17.284Z,30.92
2023-11-23T06:38:44.585Z,31.38
2023-11-23T06:41:22.188Z,31.85
2023-11-23T06:43:53.401Z,29.40
2023-11-23T06:46:21.453Z,30.02
2023-11-23T06:48:49.145Z,29.58
2023-11-23T06:51:16.744Z,27.05
2023-11-23T06:53:46.190Z,31.63
2023-11-23T06:56:17.270Z,29.13
2023-11-23T06:58:48.686Z,29.05
2023-11-23T07:01:16.801Z,27.73
2023-11-23T07:03:44.323Z,28.15
2023-11-23T07:06:12.265Z,28.73
2023-11-23T07:08:41.607Z,26.40
2023-11-23T07:11:09.252Z,27.73
2023-11-23T07:13:37.853Z,28.10
2023-11-23T07:16:06.056Z,27.52
2023-11-23T07:18:33.177Z,27.80
2023-11-23T07:21:00.512Z,27.08
2023-11-23T07:23:27.585Z,26.90
2023-11-23T07:25:54.520Z,27.13
2023-11-23T07:28:26.529Z,25.50
2023-11-23T07:30:54.815Z,26.27
2023-11-23T07:33:22.379Z,27.10
2023-11-23T07:35:51.282Z,23.50
2023-11-23T07:38:19.792Z,26.80
2023-11-23T07:40:47.045Z,25.90
2023-11-23T07:43:15.545Z,24.08
2023-11-23T07:45:42.696Z,23.95
2023-11-23T07:48:11.038Z,23.38
2023-11-23T07:50:38.581Z,24.20
2023-11-23T07:53:05.998Z,22.58
2023-11-23T07:55:33.374Z,21.50
2023-11-23T07:58:00.692Z,24.50
2023-11-23T08:00:28.511Z,20.70
2023-11-23T08:02:58.465Z,23.58
2023-11-23T08:05:25.394Z,20.58
2023-11-23T08:07:52.491Z,22.58
2023-11-23T08:10:20.798Z,20.67
2023-11-23T08:12:47.902Z,21.13
2023-11-23T08:15:15.531Z,22.83
2023-11-23T08:17:54.665Z,21.48
2023-11-23T08:20:28.757Z,22.48
2023-11-23T08:22:56.333Z,18.48
2023-11-23T08:25:23.732Z,17.73
2023-11-23T08:27:50.743Z,21.48
2023-11-23T08:30:21.293Z,17.85
2023-11-23T08:32:48.447Z,21.40
2023-11-23T08:35:15.623Z,19.83
2023-11-23T08:37:42.530Z,19.42
2023-11-23T08:40:09.929Z,18.63
2023-11-23T08:42:36.873Z,19.92
2023-11-23T08:45:04.275Z,19.50
2023-11-23T08:47:31.304Z,18.65
2023-11-23T08:49:58.627Z,20.52
2023-11-23T08:52:25.643Z,19.30
2023-11-23T08:54:52.568Z,20.15
2023-11-23T08:57:19.597Z,19.70
2023-11-23T08:59:46.931Z,19.48
2023-11-23T09:02:20.244Z,17.15
2023-11-23T09:04:49.766Z,16.75
2023-11-23T09:07:17.598Z,17.60
2023-11-23T09:09:44.908Z,20.23
2023-11-23T09:12:12.820Z,19.10
2023-11-23T09:14:47.229Z,19.33
2023-11-23T09:17:17.932Z,18.92
2023-11-23T09:19:45.980Z,19.73
2023-11-23T09:22:13.502Z,21.00
2023-11-23T09:24:40.650Z,18.58
2023-11-23T09:27:07.801Z,19.77
2023-11-23T09:29:35.113Z,18.08
2023-11-23T09:32:04.372Z,18.67
2023-11-23T09:34:31.549Z,17.48
2023-11-23T09:36:58.822Z,17.23
2023-11-23T09:39:26.749Z,14.15
2023-11-23T09:41:55.491Z,20.63
2023-11-23T09:44:27.087Z,15.70
2023-11-23T09:46:56.596Z,14.70
2023-11-23T09:49:24.876Z,15.13
2023-11-23T09:51:53.386Z,17.88
2023-11-23T09:54:23.009Z,14.23
2023-11-23T09:56:51.725Z,14.57
2023-11-23T09:59:18.715Z,13.10
2023-11-23T10:01:49.206Z,12.55
2023-11-23T10:04:17.864Z,13.45
2023-11-23T10:06:44.989Z,13.65
2023-11-23T10:09:18.748Z,13.02
2023-11-23T10:11:48.134Z,12.07
2023-11-23T10:14:17.074Z,16.20
2023-11-23T10:16:44.090Z,14.00
2023-11-23T10:19:21.251Z,14.48
2023-11-23T10:21:48.336Z,14.00
2023-11-23T10:24:17.632Z,14.90
2023-11-23T10:26:44.884Z,12.27
2023-11-23T10:29:12.873Z,15.95
2023-11-23T10:31:39.856Z,11.60
2023-11-23T10:34:09.045Z,11.75
2023-11-23T10:36:40.766Z,11.75
2023-11-23T10:39:12.911Z,11.63
2023-11-23T10:41:45.927Z,13.27
2023-11-23T10:44:13.444Z,12.23
2023-11-23T10:46:41.026Z,12.73
2023-11-23T10:49:09.366Z,12.85
2023-11-23T10:51:38.454Z,11.55
2023-11-23T10:54:06.258Z,15.70
2023-11-23T10:56:33.754Z,17.55
2023-11-23T10:59:09.634Z,11.15
2023-11-23T11:01:39.243Z,11.68
2023-11-23T11:04:06.592Z,11.63
2023-11-23T11:06:40.869Z,12.45
2023-11-23T11:09:15.435Z,13.27
2023-11-23T11:11:57.307Z,13.77
2023-11-23T11:14:37.473Z,11.20
2023-11-23T11:17:06.378Z,12.38
2023-11-23T11:19:47.674Z,11.70
2023-11-23T11:22:15.341Z,19.50
2023-11-23T11:24:43.212Z,12.80
2023-11-23T11:27:11.320Z,12.35
2023-11-23T11:29:38.258Z,14.68
2023-11-23T11:32:08.962Z,12.30
2023-11-23T11:34:37.943Z,13.18
2023-11-23T11:37:05.517Z,14.07
2023-11-23T11:39:35.234Z,13.13
2023-11-23T11:42:11.442Z,11.13
2023-11-23T11:44:44.303Z,14.88
2023-11-23T11:47:13.437Z,12.52
2023-11-23T11:49:40.963Z,13.45
2023-11-23T11:52:10.046Z,13.30
2023-11-23T11:54:39.365Z,13.98
2023-11-23T11:57:06.574Z,11.48
2023-11-23T11:59:37.064Z,15.50
2023-11-23T12:02:07.452Z,12.13
2023-11-23T12:04:39.534Z,12.95
2023-11-23T12:09:44.243Z,14.40
2023-11-23T12:12:14.352Z,11.27
2023-11-23T12:14:41.666Z,14.20
2023-11-23T12:17:13.545Z,12.77
2023-11-23T12:19:54.623Z,13.43
2023-11-23T12:22:24.326Z,11.63
2023-11-23T12:24:52.369Z,14.30
2023-11-23T12:27:22.434Z,12.57
2023-11-23T12:29:49.823Z,15.13
2023-11-23T12:32:17.936Z,11.50
2023-11-23T12:34:45.181Z,12.63
2023-11-23T12:37:12.109Z,12.80
2023-11-23T12:39:39.245Z,13.38
2023-11-23T12:42:06.897Z,13.85
2023-11-23T12:44:36.325Z,15.77
2023-11-23T12:47:04.111Z,12.98
2023-11-23T12:49:31.127Z,10.30
2023-11-23T12:51:58.457Z,12.93
2023-11-23T12:54:26.189Z,12.75
2023-11-23T12:56:53.342Z,14.00
2023-11-23T12:59:20.951Z,13.52
2023-11-23T13:01:48.030Z,11.80
2023-11-23T13:04:20.293Z,12.57
2023-11-23T13:06:48.042Z,12.25
2023-11-23T13:09:21.585Z,10.85
2023-11-23T13:11:49.114Z,15.07
2023-11-23T13:14:16.764Z,13.25
2023-11-23T13:16:45.862Z,12.55
2023-11-23T13:19:25.801Z,12.00
2023-11-23T13:21:57.480Z,11.25
2023-11-23T13:24:25.743Z,13.13
2023-11-23T13:26:52.689Z,11.45
2023-11-23T13:29:20.077Z,14.00
2023-11-23T13:31:47.553Z,12.05
2023-11-23T13:34:16.031Z,11.30
2023-11-23T13:36:43.871Z,10.55
2023-11-23T13:39:15.052Z,11.98
2023-11-23T13:41:42.084Z,11.50
2023-11-23T13:44:09.126Z,10.48
2023-11-23T13:46:36.947Z,10.63
2023-11-23T13:49:07.380Z,12.00
2023-11-23T13:51:35.057Z,15.68
2023-11-23T13:54:02.278Z,12.57
2023-11-23T13:56:29.449Z,10.95
2023-11-23T13:58:56.982Z,11.73
2023-11-23T14:01:23.964Z,11.93
2023-11-23T14:03:51.179Z,12.65
2023-11-23T14:06:18.779Z,15.00
2023-11-23T14:08:46.232Z,11.32
2023-11-23T14:11:14.074Z,10.52
2023-11-23T14:13:41.299Z,10.95
2023-11-23T14:16:08.965Z,11.85
2023-11-23T14:18:40.436Z,12.13
2023-11-23T14:21:11.651Z,9.50
2023-11-23T14:23:40.856Z,18.13
2023-11-23T14:26:09.762Z,10.52
2023-11-23T14:28:37.153Z,10.18
2023-11-23T14:31:04.311Z,10.73
2023-11-23T14:33:31.487Z,9.95
2023-11-23T14:35:58.862Z,14.23
2023-11-23T14:38:27.544Z,20.48
2023-11-23T14:40:54.877Z,9.80
2023-11-23T14:43:23.143Z,10.20
2023-11-23T14:45:51.492Z,10.82
2023-11-23T14:48:19.384Z,10.45
2023-11-23T14:50:46.850Z,11.60
2023-11-23T14:53:17.208Z,13.00
2023-11-23T14:55:44.282Z,9.77
2023-11-23T14:58:13.157Z,11.73
2023-11-23T15:00:40.328Z,11.45
2023-11-23T15:03:07.839Z,15.73
2023-11-23T15:05:34.881Z,11.98
2023-11-23T15:08:01.913Z,10.73
2023-11-23T15:10:28.904Z,9.35
2023-11-23T15:12:55.937Z,12.73
2023-11-23T15:15:28.637Z,11.05
2023-11-23T15:17:58.356Z,9.05
2023-11-23T15:20:25.306Z,12.25
2023-11-23T15:22:52.336Z,10.65
2023-11-23T15:25:19.327Z,11.48
2023-11-23T15:27:49.058Z,12.13
2023-11-23T15:30:16.373Z,19.00
2023-11-23T15:32:43.603Z,8.68
2023-11-23T15:35:16.460Z,11.70
2023-11-23T15:37:43.714Z,11.07
2023-11-23T15:40:11.184Z,12.10
2023-11-23T15:42:38.467Z,10.48
2023-11-23T15:45:06.516Z,13.00
2023-11-23T15:47:33.953Z,10.13
2023-11-23T15:50:01.047Z,11.45
2023-11-23T15:52:28.004Z,10.75
2023-11-23T15:54:54.880Z,11.05
2023-11-23T15:57:21.835Z,11.00
2023-11-23T15:59:48.760Z,13.50
2023-11-23T16:02:15.787Z,12.20
2023-11-23T16:04:43.569Z,11.77
2023-11-23T16:07:10.692Z,11.27
2023-11-23T16:09:38.326Z,11.95
2023-11-23T16:12:05.722Z,11.07
2023-11-23T16:14:32.757Z,11.23
2023-11-23T16:16:59.889Z,13.18
2023-11-23T16:19:28.870Z,11.15
2023-11-23T16:21:55.965Z,11.85
2023-11-23T16:24:23.847Z,10.48
2023-11-23T16:26:51.036Z,10.50
2023-11-23T16:29:19.193Z,13.43
2023-11-23T16:31:47.128Z,11.10
2023-11-23T16:34:16.212Z,9.68
2023-11-23T16:36:45.775Z,10.23
2023-11-23T16:39:16.716Z,12.68
2023-11-23T16:41:44.944Z,10.20
2023-11-23T16:44:13.366Z,12.98
2023-11-23T16:46:42.576Z,13.90
2023-11-23T16:49:10.494Z,12.35
2023-11-23T16:51:40.832Z,9.95
2023-11-23T16:54:07.893Z,11.52
2023-11-23T16:56:34.855Z,11.48
2023-11-23T16:59:01.940Z,12.40
2023-11-23T17:01:29.167Z,11.82
2023-11-23T17:03:56.993Z,12.10
2023-11-23T17:06:25.452Z,11.35
2023-11-23T17:08:52.527Z,10.07
2023-11-23T17:11:21.853Z,10.55
2023-11-23T17:13:50.406Z,11.68
2023-11-23T17:16:17.968Z,12.95
2023-11-23T17:18:45.209Z,10.43
2023-11-23T17:21:12.321Z,10.55
2023-11-23T17:23:39.224Z,9.52
2023-11-23T17:26:10.129Z,12.05
2023-11-23T17:28:37.200Z,9.80
2023-11-23T17:31:06.599Z,12.55
2023-11-23T17:33:34.074Z,11.32
2023-11-23T17:36:01.130Z,10.32
2023-11-23T17:38:28.454Z,13.30
2023-11-23T17:40:55.329Z,9.70
2023-11-23T17:43:23.150Z,9.85
2023-11-23T17:45:50.548Z,10.40
2023-11-23T17:48:17.686Z,10.50
2023-11-23T17:50:44.975Z,11.60
2023-11-23T17:53:12.816Z,12.13
2023-11-23T17:55:40.113Z,10.70
2023-11-23T17:58:08.679Z,9.50
2023-11-23T18:00:36.160Z,10.57
2023-11-23T18:03:04.006Z,8.82
2023-11-23T18:05:33.042Z,9.63
2023-11-23T18:07:59.965Z,10.00
2023-11-23T18:10:26.951Z,10.75
2023-11-23T18:12:54.109Z,11.57
2023-11-23T18:15:21.810Z,8.77
2023-11-23T18:17:48.945Z,13.18
2023-11-23T18:20:17.006Z,9.23
2023-11-23T18:22:44.457Z,9.63
2023-11-23T18:25:11.487Z,7.93
2023-11-23T18:27:39.017Z,10.93
2023-11-23T18:30:07.023Z,8.07
2023-11-23T18:32:34.053Z,12.30
2023-11-23T18:35:02.395Z,9.25
2023-11-23T18:37:29.729Z,8.70
2023-11-23T18:39:56.945Z,10.30
2023-11-23T18:42:25.700Z,7.55
2023-11-23T18:45:34.469Z,9.20
2023-11-23T18:48:03.527Z,8.27
2023-11-23T18:50:30.717Z,9.73
2023-11-23T18:52:59.486Z,7.38
2023-11-23T18:55:27.101Z,7.90
2023-11-23T18:57:54.974Z,9.02
2023-11-23T19:00:23.554Z,7.88
2023-11-23T19:02:54.273Z,8.50
2023-11-23T19:05:21.537Z,7.95
2023-11-23T19:07:48.770Z,7.55
2023-11-23T19:10:16.900Z,8.80
2023-11-23T19:12:51.576Z,8.63
2023-11-23T19:15:21.269Z,7.57
2023-11-23T19:17:48.871Z,11.02
2023-11-23T19:20:16.333Z,6.95
2023-11-23T19:22:43.663Z,7.82
2023-11-23T19:25:11.078Z,7.47
2023-11-23T19:27:39.688Z,9.05
2023-11-23T19:30:08.867Z,8.60
2023-11-23T19:32:36.373Z,7.85
2023-11-23T19:35:10.245Z,6.60
2023-11-23T19:37:38.015Z,7.05
2023-11-23T19:40:05.703Z,7.38
2023-11-23T19:42:34.071Z,6.85
2023-11-23T19:45:01.298Z,8.27
2023-11-23T19:47:29.472Z,10.02
2023-11-23T19:49:56.885Z,7.82
2023-11-23T19:52:28.430Z,8.02
2023-11-23T19:54:56.588Z,6.93
2023-11-23T19:57:23.887Z,5.55
2023-11-23T19:59:50.887Z,6.93
2023-11-23T20:02:18.041Z,6.30
2023-11-23T20:04:45.877Z,6.97
2023-11-23T20:07:13.874Z,6.18
2023-11-23T20:09:40.954Z,5.93
2023-11-23T20:12:08.501Z,7.20
2023-11-23T20:14:37.197Z,6.38
2023-11-23T20:17:05.349Z,7.20
2023-11-23T20:19:33.386Z,5.85
2023-11-23T20:22:00.389Z,5.93
2023-11-23T20:24:27.998Z,7.60
2023-11-23T20:26:54.991Z,5.53
2023-11-23T20:29:22.016Z,6.20
2023-11-23T20:31:52.167Z,6.45
2023-11-23T20:34:20.213Z,5.32
2023-11-23T20:36:47.301Z,6.47
2023-11-23T20:39:17.603Z,5.97
2023-11-23T20:41:46.614Z,5.43
2023-11-23T20:44:13.626Z,5.63
2023-11-23T20:46:41.278Z,6.10
2023-11-23T20:49:08.699Z,5.32
2023-11-23T20:51:36.271Z,6.40
2023-11-23T20:54:05.086Z,6.53
2023-11-23T20:56:33.016Z,6.97
2023-11-23T20:59:00.354Z,5.55
2023-11-23T21:01:27.863Z,5.75
2023-11-23T21:03:55.385Z,9.85
2023-11-23T21:06:22.854Z,7.05
2023-11-23T21:08:50.978Z,6.20
2023-11-23T21:11:20.658Z,7.72
2023-11-23T21:13:48.117Z,7.10
2023-11-23T21:16:15.486Z,6.00
2023-11-23T21:18:42.808Z,8.15
2023-11-23T21:21:10.842Z,6.47
2023-11-23T21:23:39.802Z,7.25
2023-11-23T21:26:07.456Z,10.77
2023-11-23T21:28:35.486Z,8.75
2023-11-23T21:31:03.157Z,7.50
2023-11-23T21:33:30.468Z,7.85
2023-11-23T21:35:58.824Z,7.68
2023-11-23T21:38:26.343Z,7.45
2023-11-23T21:40:55.473Z,7.50
2023-11-23T21:43:22.402Z,7.10
2023-11-23T21:45:49.451Z,7.40
2023-11-23T21:48:16.506Z,6.68
2023-11-23T21:50:43.489Z,6.82
2023-11-23T21:53:11.145Z,8.05
2023-11-23T21:55:38.621Z,7.03
2023-11-23T21:58:06.227Z,7.50
2023-11-23T22:00:33.400Z,5.95
2023-11-23T22:03:01.302Z,4.60
2023-11-23T22:05:28.390Z,5.22
2023-11-23T22:07:56.501Z,4.32
2023-11-23T22:10:23.836Z,5.25
2023-11-23T22:12:51.513Z,4.35
2023-11-23T22:15:18.880Z,5.53
2023-11-23T22:17:46.501Z,5.05
2023-11-23T22:20:14.184Z,4.90
2023-11-23T22:22:41.505Z,3.17
2023-11-23T22:25:09.373Z,4.03
2023-11-23T22:27:37.638Z,5.28
2023-11-23T22:30:05.330Z,4.22
2023-11-23T22:32:33.402Z,4.20
2023-11-23T22:35:00.691Z,4.00
2023-11-23T22:37:28.090Z,4.78
2023-11-23T22:39:55.420Z,4.35
2023-11-23T22:42:23.068Z,5.38
2023-11-23T22:44:50.355Z,4.45
2023-11-23T22:47:17.347Z,4.28
2023-11-23T22:49:44.310Z,4.28
2023-11-23T22:52:11.432Z,4.35
2023-11-23T22:54:39.151Z,4.32
2023-11-23T22:57:06.298Z,5.93
2023-11-23T22:59:33.367Z,4.35
2023-11-23T23:02:00.435Z,6.18
2023-11-23T23:04:28.287Z,4.75
2023-11-23T23:06:55.616Z,4.72
2023-11-23T23:09:23.024Z,5.32
2023-11-23T23:11:51.733Z,6.22
2023-11-23T23:14:19.039Z,4.90
2023-11-23T23:16:45.974Z,5.38
2023-11-23T23:19:15.094Z,5.63
2023-11-23T23:21:45.427Z,4.13
2023-11-23T23:24:12.940Z,5.15
2023-11-23T23:26:40.918Z,7.05
2023-11-23T23:29:08.321Z,7.55
2023-11-23T23:31:35.803Z,5.88
2023-11-23T23:34:02.848Z,6.22
2023-11-23T23:36:29.899Z,5.18
2023-11-23T23:38:56.957Z,5.68
2023-11-23T23:41:24.041Z,5.75
2023-11-23T23:43:51.049Z,4.63
2023-11-23T23:46:18.139Z,5.32
2023-11-23T23:48:45.546Z,6.40
2023-11-23T23:51:13.391Z,7.45
2023-11-23T23:53:40.401Z,6.50
2023-11-23T23:56:08.672Z,4.50
2023-11-23T23:58:35.984Z,4.18
